Thompsons Station, Tennessee
Current Conditions -  °F | °C
As of 2:53 AM on Thursday 18 Dec 2014 (Local Time) from KBNA Reporting Station
Drizzle Drizzle  
Wind Chill: -2°   Ceiling: 7500
Heat Index:   Visibility: 8mi
Dew Point: -1°   Wind: 5mph
Humidity: 89%   Direction: 10°N
Pressure: 30.28"   Gusts: NA
Location:  35.8°N, 86.91°W
Report Text: KBNA 180853Z 01004KT 8SM -DZ OVC075 01/M01 A3028 RMK AO2 SLP256 P0001 60002 T00061011 50004
Loading
Personal Weather Stations






























Interactive Weather Map New forecast layout! Learn more

10-Day Weather Forecast

Advertisements
Track Severe Weather on mobile